Time;durP1;ratioP1;P1;durP2;ratioP2;P2;SDS_P1;SDS_P2;PMS_P1;PMS_P2;Temp;Humidity;BMP_temperature;BMP_pressure;BME280_temperature;BME280_humidity;BME280_pressure;Samples;Min_cycle;Max_cycle;Signal;HPM_P1;HPM_P2
2023/10/21 00:02:22;;;;;;;62.13;57.90;;;14.10;99.90;;;;;;4956723;28;20075;-74
2023/10/21 00:04:49;;;;;;;56.80;52.55;;;14.10;99.90;;;;;;4956258;29;20384;-74
2023/10/21 00:07:15;;;;;;;57.63;54.05;;;14.20;99.90;;;;;;4956015;28;20043;-75
2023/10/21 00:09:41;;;;;;;49.42;45.90;;;14.20;99.90;;;;;;4970704;28;20039;-75
2023/10/21 00:12:08;;;;;;;50.40;46.80;;;14.10;99.90;;;;;;4975118;28;20054;-75
2023/10/21 00:14:34;;;;;;;52.10;48.53;;;14.00;99.90;;;;;;4976556;28;20027;-74
2023/10/21 00:17:00;;;;;;;55.72;51.67;;;14.00;99.90;;;;;;4975648;28;20055;-74
2023/10/21 00:19:26;;;;;;;44.70;41.45;;;14.00;99.90;;;;;;4976433;28;20031;-74
2023/10/21 00:21:53;;;;;;;52.28;48.88;;;14.00;99.90;;;;;;4962066;28;20069;-75
2023/10/21 00:24:20;;;;;;;47.70;44.38;;;14.00;99.90;;;;;;4956775;28;20051;-74
2023/10/21 00:26:48;;;;;;;55.35;51.60;;;14.00;99.90;;;;;;4955679;28;20043;-76
2023/10/21 00:29:17;;;;;;;50.88;47.10;;;13.90;99.90;;;;;;4955829;29;20031;-74
2023/10/21 00:31:43;;;;;;;54.10;50.40;;;14.00;99.90;;;;;;4939333;28;20039;-74
2023/10/21 00:34:10;;;;;;;53.10;49.60;;;13.90;99.90;;;;;;4955824;29;20035;-74
2023/10/21 00:36:36;;;;;;;44.90;41.65;;;14.00;99.90;;;;;;4967665;28;20034;-75
2023/10/21 00:39:03;;;;;;;56.63;53.08;;;14.00;99.90;;;;;;4974702;28;20031;-74
2023/10/21 00:41:29;;;;;;;45.45;42.15;;;14.00;99.90;;;;;;4963703;28;20062;-75
2023/10/21 00:43:55;;;;;;;43.67;40.63;;;14.00;99.90;;;;;;4955646;29;20032;-75
2023/10/21 00:46:26;;;;;;;62.08;57.75;;;14.00;99.90;;;;;;4954749;28;20040;-74
2023/10/21 00:48:52;;;;;;;42.33;39.22;;;14.00;99.90;;;;;;4956650;29;20035;-75
2023/10/21 00:51:18;;;;;;;37.15;34.15;;;14.00;99.90;;;;;;4980178;28;20049;-75
2023/10/21 00:53:45;;;;;;;53.85;50.17;;;14.00;99.90;;;;;;4958485;28;20027;-74
2023/10/21 00:56:11;;;;;;;45.13;41.97;;;14.00;99.90;;;;;;4974042;28;20043;-75
2023/10/21 00:58:37;;;;;;;45.53;42.28;;;13.90;99.90;;;;;;4974768;28;20027;-74
2023/10/21 01:01:08;;;;;;;46.08;42.70;;;14.00;99.90;;;;;;4967393;28;20047;-74
2023/10/21 01:03:35;;;;;;;42.97;40.05;;;13.90;99.90;;;;;;4955411;29;20028;-71
2023/10/21 01:06:01;;;;;;;37.63;34.92;;;13.90;99.90;;;;;;4955978;28;20054;-70
2023/10/21 01:08:27;;;;;;;61.28;57.13;;;13.90;99.90;;;;;;4955948;28;20034;-71
2023/10/21 01:10:53;;;;;;;42.28;39.15;;;13.90;99.90;;;;;;4956042;28;20038;-70
2023/10/21 01:13:19;;;;;;;63.78;59.55;;;13.90;99.90;;;;;;4956238;29;20465;-71
2023/10/21 01:15:45;;;;;;;84.47;79.30;;;13.90;99.90;;;;;;4955592;28;20047;-70
2023/10/21 01:18:12;;;;;;;97.63;91.53;;;13.90;99.90;;;;;;4956128;28;20039;-71
2023/10/21 01:20:39;;;;;;;100.65;94.70;;;13.90;99.90;;;;;;4955721;28;20051;-71
2023/10/21 01:23:09;;;;;;;72.85;68.50;;;13.90;99.90;;;;;;4955909;28;20044;-70
2023/10/21 01:25:35;;;;;;;54.35;50.33;;;13.90;99.90;;;;;;4955820;28;20492;-70
2023/10/21 01:28:01;;;;;;;48.80;45.13;;;13.90;99.90;;;;;;4956018;29;20453;-71
2023/10/21 01:30:27;;;;;;;50.45;46.70;;;13.90;99.90;;;;;;4955265;28;20046;-70
2023/10/21 01:32:53;;;;;;;58.80;54.90;;;14.00;99.90;;;;;;4955980;29;20032;-70
2023/10/21 01:35:21;;;;;;;62.35;58.10;;;14.00;99.90;;;;;;4957641;28;20043;-71
2023/10/21 01:37:47;;;;;;;61.92;57.92;;;14.00;99.90;;;;;;4974411;28;20408;-70
2023/10/21 01:40:13;;;;;;;59.78;55.42;;;13.90;99.90;;;;;;4974105;28;20031;-71
2023/10/21 01:42:40;;;;;;;52.33;48.53;;;14.00;99.90;;;;;;4955771;29;20502;-71
2023/10/21 01:45:07;;;;;;;56.53;52.53;;;14.00;99.90;;;;;;4955328;28;20035;-71
2023/10/21 01:47:37;;;;;;;60.15;55.58;;;14.00;99.90;;;;;;4974481;28;20061;-71
2023/10/21 01:50:07;;;;;;;50.13;46.75;;;14.00;99.90;;;;;;4975088;28;20055;-72
2023/10/21 01:52:35;;;;;;;54.63;50.33;;;14.00;99.90;;;;;;4974407;28;20404;-71
2023/10/21 01:55:05;;;;;;;53.05;49.45;;;13.90;99.90;;;;;;4974897;28;20031;-70
2023/10/21 01:57:34;;;;;;;50.67;46.75;;;13.80;99.90;;;;;;4955590;28;20420;-70
2023/10/21 02:00:01;;;;;;;56.28;52.05;;;13.80;99.90;;;;;;4955250;29;20492;-70
2023/10/21 02:02:28;;;;;;;50.97;47.22;;;13.70;99.90;;;;;;4953049;28;20054;-71
2023/10/21 02:04:54;;;;;;;51.72;47.97;;;13.70;99.90;;;;;;4955463;29;20031;-71
2023/10/21 02:07:20;;;;;;;50.72;46.60;;;13.60;99.90;;;;;;4955003;28;20039;-70
2023/10/21 02:09:46;;;;;;;70.75;66.28;;;13.60;99.90;;;;;;4955108;28;20034;-70
2023/10/21 02:12:12;;;;;;;72.70;67.75;;;13.60;99.90;;;;;;4955027;28;20050;-70
2023/10/21 02:14:38;;;;;;;64.55;60.13;;;13.60;99.90;;;;;;4955095;29;20461;-70
2023/10/21 02:17:05;;;;;;;61.28;57.15;;;13.60;99.90;;;;;;4954304;28;20066;-70
2023/10/21 02:19:31;;;;;;;67.40;62.72;;;13.60;99.90;;;;;;4954064;28;20046;-70
2023/10/21 02:21:58;;;;;;;63.67;59.35;;;13.70;99.90;;;;;;4954185;28;20055;-70
2023/10/21 02:24:24;;;;;;;52.03;48.03;;;13.60;99.90;;;;;;4954616;28;20047;-71
2023/10/21 02:26:50;;;;;;;53.35;48.92;;;13.60;99.90;;;;;;4954768;28;20043;-72
2023/10/21 02:29:16;;;;;;;51.83;47.88;;;13.60;99.90;;;;;;4954631;29;20039;-72
2023/10/21 02:31:42;;;;;;;84.10;78.65;;;13.70;99.90;;;;;;4953798;28;20046;-72
2023/10/21 02:34:08;;;;;;;127.72;120.07;;;13.60;99.90;;;;;;4954513;29;20035;-72
2023/10/21 02:36:35;;;;;;;178.13;168.15;;;13.60;99.90;;;;;;4966307;28;20038;-72
2023/10/21 02:39:01;;;;;;;186.50;175.90;;;13.50;99.90;;;;;;4974166;28;20038;-72
2023/10/21 02:41:27;;;;;;;195.00;183.90;;;13.50;99.90;;;;;;4961639;28;20047;-72
2023/10/21 02:43:53;;;;;;;122.93;115.20;;;13.50;99.90;;;;;;4954664;29;20043;-72
2023/10/21 02:46:19;;;;;;;118.93;111.70;;;13.40;99.90;;;;;;4953803;28;20047;-72
2023/10/21 02:48:45;;;;;;;121.15;114.32;;;13.40;99.90;;;;;;4954217;29;20027;-72
2023/10/21 02:51:15;;;;;;;95.05;88.80;;;13.40;99.90;;;;;;4954152;28;20038;-72
2023/10/21 02:53:42;;;;;;;99.63;93.27;;;13.40;99.90;;;;;;4954591;29;20034;-72
2023/10/21 02:56:09;;;;;;;78.80;73.63;;;13.40;99.90;;;;;;4953775;28;20047;-72
2023/10/21 02:58:35;;;;;;;95.10;89.05;;;13.40;99.90;;;;;;4953421;29;20043;-72
2023/10/21 03:01:04;;;;;;;76.55;70.45;;;13.40;99.90;;;;;;4953232;28;20400;-72
2023/10/21 03:03:30;;;;;;;85.45;79.35;;;13.40;99.90;;;;;;4954051;28;20491;-72
2023/10/21 03:05:56;;;;;;;94.30;88.07;;;13.40;99.90;;;;;;4953839;28;20043;-72
2023/10/21 03:08:22;;;;;;;76.20;70.78;;;13.20;99.90;;;;;;4954375;28;20031;-72
2023/10/21 03:10:48;;;;;;;97.53;91.63;;;13.20;99.90;;;;;;4953925;28;20461;-72
2023/10/21 03:13:14;;;;;;;128.63;120.93;;;13.20;99.90;;;;;;4954099;29;20035;-73
2023/10/21 03:15:40;;;;;;;113.63;106.97;;;13.30;99.90;;;;;;4953078;28;20381;-72
2023/10/21 03:18:06;;;;;;;102.32;95.95;;;13.30;99.90;;;;;;4953801;29;20035;-72
2023/10/21 03:20:33;;;;;;;73.18;68.47;;;13.20;99.90;;;;;;4953992;28;20058;-72
2023/10/21 03:22:59;;;;;;;99.32;92.90;;;13.20;99.90;;;;;;4954108;29;20484;-72
2023/10/21 03:25:25;;;;;;;87.32;81.78;;;13.30;99.90;;;;;;4952688;28;20028;-72
2023/10/21 03:27:52;;;;;;;83.35;78.05;;;13.20;99.90;;;;;;4954231;29;20477;-72
2023/10/21 03:30:18;;;;;;;78.05;72.75;;;13.20;99.90;;;;;;4956231;28;20042;-73
2023/10/21 03:32:44;;;;;;;70.93;65.68;;;13.20;99.90;;;;;;4957715;29;20035;-73
2023/10/21 03:35:10;;;;;;;50.25;46.20;;;13.20;99.90;;;;;;4958723;28;20031;-74
2023/10/21 03:37:36;;;;;;;45.88;42.28;;;13.20;99.90;;;;;;4977228;28;20464;-73
2023/10/21 03:40:10;;;;;;;50.97;47.10;;;13.20;99.90;;;;;;4977185;28;20059;-73
2023/10/21 03:42:39;;;;;;;44.90;41.45;;;13.20;99.90;;;;;;4976933;28;20046;-74
2023/10/21 03:45:07;;;;;;;52.38;48.60;;;13.20;99.90;;;;;;4991584;28;20042;-74
2023/10/21 03:47:34;;;;;;;97.30;90.65;;;13.20;99.90;;;;;;4976699;28;20027;-73
2023/10/21 03:50:00;;;;;;;58.72;54.15;;;13.20;99.90;;;;;;4975042;28;20043;-73
2023/10/21 03:52:26;;;;;;;51.83;47.60;;;13.20;99.90;;;;;;4957108;28;20031;-74
2023/10/21 03:54:52;;;;;;;46.67;42.85;;;13.20;99.90;;;;;;4956350;29;20023;-74
2023/10/21 03:57:18;;;;;;;43.30;39.85;;;13.20;99.90;;;;;;4957464;28;20058;-74
2023/10/21 03:59:44;;;;;;;54.10;49.97;;;13.20;99.90;;;;;;4957378;29;20027;-73
2023/10/21 04:02:10;;;;;;;45.72;41.72;;;13.20;99.90;;;;;;4956352;28;20069;-74
2023/10/21 04:04:36;;;;;;;57.58;52.70;;;13.20;99.90;;;;;;4957442;29;20031;-73
2023/10/21 04:07:04;;;;;;;58.40;54.15;;;13.20;99.90;;;;;;4957135;28;20062;-74
2023/10/21 04:09:30;;;;;;;77.70;72.43;;;13.20;99.90;;;;;;4969625;28;20023;-73
2023/10/21 04:11:56;;;;;;;56.53;52.42;;;13.20;99.90;;;;;;4961852;28;20043;-74
2023/10/21 04:14:22;;;;;;;57.58;52.50;;;13.10;99.90;;;;;;4957279;29;20027;-74
2023/10/21 04:16:49;;;;;;;69.20;63.80;;;13.10;99.90;;;;;;4955069;28;20382;-74
2023/10/21 04:19:16;;;;;;;74.90;69.50;;;13.00;99.90;;;;;;4957157;29;20034;-74
2023/10/21 04:21:42;;;;;;;75.88;70.53;;;13.00;99.90;;;;;;4955742;28;20046;-73
2023/10/21 04:24:08;;;;;;;74.80;69.65;;;13.00;99.90;;;;;;4957084;29;20385;-74
2023/10/21 04:26:34;;;;;;;77.45;72.32;;;13.00;99.90;;;;;;4955697;28;20039;-74
2023/10/21 04:29:01;;;;;;;57.60;53.35;;;13.00;99.90;;;;;;4955849;29;20038;-73
2023/10/21 04:31:39;;;;;;;71.53;65.50;;;13.10;99.90;;;;;;4955862;28;20039;-74
2023/10/21 04:34:05;;;;;;;57.72;53.28;;;13.10;99.90;;;;;;4956885;29;20035;-74
2023/10/21 04:36:31;;;;;;;66.90;62.22;;;13.10;99.90;;;;;;4966957;28;20031;-74
2023/10/21 04:38:57;;;;;;;77.85;72.45;;;13.10;99.90;;;;;;4976131;28;20608;-71
2023/10/21 04:41:23;;;;;;;76.70;71.80;;;13.10;99.90;;;;;;4965215;28;20031;-70
2023/10/21 04:43:50;;;;;;;77.25;72.13;;;13.10;99.90;;;;;;4956873;29;20035;-71
2023/10/21 04:46:17;;;;;;;92.20;86.50;;;13.10;99.90;;;;;;4955534;28;20511;-71
2023/10/21 04:48:43;;;;;;;92.97;86.93;;;13.10;99.90;;;;;;4956331;28;20039;-71
2023/10/21 04:51:09;;;;;;;73.15;67.35;;;13.10;99.90;;;;;;4956293;28;20038;-70
2023/10/21 04:53:35;;;;;;;85.45;79.32;;;13.20;99.90;;;;;;4956719;29;20027;-71
2023/10/21 04:56:03;;;;;;;91.32;84.97;;;13.10;99.90;;;;;;4956182;28;20043;-71
2023/10/21 04:58:29;;;;;;;116.60;109.55;;;13.10;99.90;;;;;;4956604;28;20481;-70
2023/10/21 05:00:55;;;;;;;98.35;92.18;;;13.10;99.90;;;;;;4955404;28;20028;-70
2023/10/21 05:03:22;;;;;;;127.63;119.32;;;13.10;99.90;;;;;;4956604;29;20058;-70
2023/10/21 05:05:48;;;;;;;107.88;100.55;;;13.10;99.90;;;;;;4955826;28;20485;-70
2023/10/21 05:08:14;;;;;;;114.40;106.72;;;13.10;99.90;;;;;;4958403;28;20058;-71
2023/10/21 05:10:40;;;;;;;107.82;100.18;;;13.10;99.90;;;;;;4971093;28;20396;-70
2023/10/21 05:13:06;;;;;;;94.28;87.95;;;13.10;99.90;;;;;;4956159;29;20039;-70
2023/10/21 05:15:32;;;;;;;143.55;134.60;;;13.10;99.90;;;;;;4954848;28;20058;-70
2023/10/21 05:17:58;;;;;;;90.65;84.55;;;13.10;99.90;;;;;;4955808;28;20043;-70
2023/10/21 05:20:24;;;;;;;133.88;125.97;;;13.10;99.90;;;;;;4955846;28;20063;-70
2023/10/21 05:22:50;;;;;;;135.48;127.18;;;13.10;99.90;;;;;;4956077;29;20047;-70
2023/10/21 05:25:17;;;;;;;172.90;163.27;;;13.10;99.90;;;;;;4955810;28;20038;-70
2023/10/21 05:27:43;;;;;;;167.52;158.07;;;13.10;99.90;;;;;;4956105;28;20035;-70
2023/10/21 05:30:12;;;;;;;204.90;193.63;;;13.20;99.90;;;;;;4954419;28;20035;-71
2023/10/21 05:32:38;;;;;;;168.43;158.73;;;13.20;99.90;;;;;;4955921;28;20047;-70
2023/10/21 05:35:08;;;;;;;214.68;202.93;;;13.00;99.90;;;;;;4955793;29;20031;-70
2023/10/21 05:37:35;;;;;;;231.45;218.10;;;13.00;99.90;;;;;;4955623;28;20511;-70
2023/10/21 05:40:05;;;;;;;209.32;197.13;;;13.00;99.90;;;;;;4955579;28;20350;-70
2023/10/21 05:42:32;;;;;;;216.73;205.10;;;13.00;99.90;;;;;;4955159;28;20055;-69
2023/10/21 05:44:59;;;;;;;211.13;198.93;;;13.00;99.90;;;;;;4955831;28;20760;-74
2023/10/21 05:47:26;;;;;;;238.25;224.90;;;13.10;99.90;;;;;;4954800;28;20043;-75
2023/10/21 05:49:53;;;;;;;197.40;185.93;;;13.10;99.90;;;;;;4938721;29;20027;-75
2023/10/21 05:52:19;;;;;;;233.57;220.85;;;13.10;99.90;;;;;;4937828;28;20042;-75
2023/10/21 05:54:45;;;;;;;202.38;190.68;;;13.10;99.90;;;;;;4954948;29;20038;-74
2023/10/21 05:57:11;;;;;;;201.73;190.38;;;13.10;99.90;;;;;;4954843;28;20418;-74
2023/10/21 05:59:38;;;;;;;256.45;242.05;;;13.20;99.90;;;;;;4954247;29;20023;-74
2023/10/21 06:02:04;;;;;;;219.65;207.25;;;13.20;99.90;;;;;;4955045;28;20548;-74
2023/10/21 06:04:31;;;;;;;213.10;200.85;;;13.20;99.90;;;;;;4955155;29;20019;-74
2023/10/21 06:06:58;;;;;;;198.15;187.20;;;13.20;99.90;;;;;;4954151;28;20047;-74
2023/10/21 06:09:24;;;;;;;203.88;192.20;;;13.20;99.90;;;;;;4955011;28;20033;-74
2023/10/21 06:11:53;;;;;;;201.23;189.88;;;13.20;99.90;;;;;;4937542;29;20477;-74
2023/10/21 06:14:19;;;;;;;185.07;174.73;;;13.20;99.90;;;;;;4953921;29;20038;-74
2023/10/21 06:16:45;;;;;;;196.55;185.70;;;13.20;99.90;;;;;;4954151;28;20043;-74
2023/10/21 06:19:11;;;;;;;198.48;187.40;;;13.20;99.90;;;;;;4953782;29;20027;-74
2023/10/21 06:21:37;;;;;;;199.82;188.68;;;13.20;99.90;;;;;;4953529;28;20031;-74
2023/10/21 06:24:04;;;;;;;195.73;184.85;;;13.20;99.90;;;;;;4953767;29;20042;-74
2023/10/21 06:26:33;;;;;;;167.40;157.23;;;13.20;99.90;;;;;;4954309;28;20042;-74
2023/10/21 06:29:00;;;;;;;178.32;167.98;;;13.20;99.90;;;;;;4953706;29;20039;-74
2023/10/21 06:31:26;;;;;;;168.80;159.20;;;13.20;99.90;;;;;;4953952;28;20042;-74
2023/10/21 06:33:53;;;;;;;180.35;170.07;;;13.20;99.90;;;;;;4937821;29;20046;-74
2023/10/21 06:36:19;;;;;;;169.30;158.70;;;13.20;99.90;;;;;;4963350;28;20019;-74
2023/10/21 06:38:49;;;;;;;171.35;161.40;;;13.20;99.90;;;;;;4973956;28;20037;-74
2023/10/21 06:41:16;;;;;;;165.30;156.00;;;13.20;99.90;;;;;;4964587;28;20027;-74
2023/10/21 06:43:42;;;;;;;165.20;155.63;;;13.20;99.90;;;;;;4954599;29;20031;-74
2023/10/21 06:46:08;;;;;;;171.75;161.80;;;13.30;99.90;;;;;;4952631;28;20027;-74
2023/10/21 06:48:34;;;;;;;175.70;165.48;;;13.20;99.90;;;;;;4953391;29;20042;-74
2023/10/21 06:51:00;;;;;;;180.10;169.63;;;13.20;99.90;;;;;;4953140;28;20035;-74
2023/10/21 06:53:29;;;;;;;165.07;155.80;;;13.30;99.90;;;;;;4954498;29;20031;-74
2023/10/21 06:55:55;;;;;;;167.55;157.98;;;13.30;99.90;;;;;;4952551;28;20035;-74
2023/10/21 06:58:21;;;;;;;163.23;153.55;;;13.40;99.90;;;;;;4953213;29;20043;-70
2023/10/21 07:00:47;;;;;;;169.25;160.05;;;13.30;99.90;;;;;;4953548;28;20428;-72
2023/10/21 07:03:13;;;;;;;131.60;123.88;;;13.40;99.90;;;;;;4954330;29;20058;-71
2023/10/21 07:05:40;;;;;;;161.45;151.98;;;13.30;99.90;;;;;;4953916;28;20027;-71
2023/10/21 07:08:07;;;;;;;143.88;135.15;;;13.30;99.90;;;;;;4953785;28;20062;-72
2023/10/21 07:10:33;;;;;;;117.15;110.32;;;13.30;99.90;;;;;;4953500;28;20043;-71
2023/10/21 07:12:59;;;;;;;119.72;113.07;;;13.40;99.90;;;;;;4953818;28;20047;-72
2023/10/21 07:15:28;;;;;;;146.98;138.48;;;13.40;99.90;;;;;;4953508;28;20040;-72
2023/10/21 07:17:54;;;;;;;90.03;84.07;;;13.40;99.90;;;;;;4954306;28;20373;-71
2023/10/21 07:20:20;;;;;;;49.25;45.33;;;13.50;99.90;;;;;;4953921;28;20047;-70
2023/10/21 07:22:49;;;;;;;50.90;47.00;;;13.50;99.90;;;;;;4953971;29;20035;-71
2023/10/21 07:25:18;;;;;;;35.83;32.63;;;13.50;99.90;;;;;;4953481;28;20492;-72
2023/10/21 07:27:47;;;;;;;37.88;34.53;;;13.50;99.90;;;;;;4953949;29;20031;-71
2023/10/21 07:30:14;;;;;;;41.30;37.75;;;13.50;99.90;;;;;;4952240;28;20038;-72
2023/10/21 07:32:40;;;;;;;49.80;45.47;;;13.60;99.90;;;;;;4952355;29;20054;-71
2023/10/21 07:35:07;;;;;;;38.38;35.60;;;13.60;99.90;;;;;;4954525;28;20389;-72
2023/10/21 07:37:33;;;;;;;44.75;41.05;;;13.70;99.90;;;;;;4972935;28;20039;-71
2023/10/21 07:39:59;;;;;;;40.38;36.92;;;13.70;99.90;;;;;;4973079;28;20035;-71
2023/10/21 07:42:26;;;;;;;45.97;43.00;;;13.80;99.90;;;;;;4954849;28;20043;-71
2023/10/21 07:44:52;;;;;;;39.88;36.95;;;13.80;99.90;;;;;;4952707;29;20387;-72
2023/10/21 07:47:19;;;;;;;40.40;37.45;;;13.80;99.90;;;;;;4936121;29;20035;-71
2023/10/21 07:49:45;;;;;;;44.05;40.78;;;13.90;99.90;;;;;;4952633;29;20132;-72
2023/10/21 07:52:11;;;;;;;44.28;41.28;;;14.00;99.90;;;;;;4953668;28;20400;-71
2023/10/21 07:54:40;;;;;;;61.80;57.83;;;14.10;99.90;;;;;;4953429;29;20024;-72
2023/10/21 07:57:08;;;;;;;53.60;50.05;;;14.20;99.90;;;;;;4953146;28;20054;-71
2023/10/21 07:59:34;;;;;;;50.95;47.53;;;14.20;99.90;;;;;;4953612;28;20055;-71
2023/10/21 08:02:00;;;;;;;46.55;42.97;;;14.20;99.90;;;;;;4953030;28;20493;-70
2023/10/21 08:04:26;;;;;;;47.03;43.88;;;14.20;99.90;;;;;;4953853;29;20038;-70
2023/10/21 08:06:53;;;;;;;46.72;43.17;;;14.20;99.90;;;;;;4953720;28;20039;-70
2023/10/21 08:09:19;;;;;;;43.08;40.22;;;14.20;99.90;;;;;;4963625;28;20038;-70
2023/10/21 08:11:46;;;;;;;51.42;47.70;;;14.20;99.90;;;;;;4960568;28;20050;-70
2023/10/21 08:14:12;;;;;;;45.20;41.88;;;14.30;99.90;;;;;;4953793;29;20019;-70
2023/10/21 08:16:38;;;;;;;45.72;42.53;;;14.30;99.90;;;;;;4954271;28;20440;-70
2023/10/21 08:19:05;;;;;;;45.05;41.72;;;14.30;99.90;;;;;;4957146;29;20035;-70
2023/10/21 08:21:34;;;;;;;43.97;40.53;;;14.30;99.90;;;;;;4957080;28;20511;-70
2023/10/21 08:24:02;;;;;;;46.70;43.00;;;14.40;99.90;;;;;;4956815;29;20107;-70
2023/10/21 08:26:29;;;;;;;46.70;42.67;;;14.50;99.90;;;;;;4956660;28;20039;-70
2023/10/21 08:28:55;;;;;;;51.75;47.75;;;14.50;99.90;;;;;;4956997;29;20031;-70
2023/10/21 08:31:24;;;;;;;50.92;46.92;;;14.50;99.90;;;;;;4956146;28;20405;-70
2023/10/21 08:33:53;;;;;;;47.38;43.85;;;14.60;99.90;;;;;;4956550;28;20039;-70
2023/10/21 08:36:20;;;;;;;54.85;50.88;;;14.60;99.90;;;;;;4966810;28;20038;-70
2023/10/21 08:38:47;;;;;;;51.92;47.80;;;14.80;99.90;;;;;;4975906;28;20031;-70
2023/10/21 08:41:13;;;;;;;52.60;48.75;;;15.00;99.90;;;;;;4967324;28;20027;-70
2023/10/21 08:43:48;;;;;;;54.80;50.60;;;15.20;99.90;;;;;;4956601;28;20043;-70
2023/10/21 08:46:15;;;;;;;60.53;56.50;;;15.30;99.90;;;;;;4956037;28;20035;-70
2023/10/21 08:48:46;;;;;;;71.22;66.60;;;15.30;99.90;;;;;;4955627;29;20377;-70
2023/10/21 08:51:22;;;;;;;56.05;52.15;;;15.30;99.90;;;;;;4955937;28;20047;-70
2023/10/21 08:53:54;;;;;;;59.65;55.42;;;15.30;99.90;;;;;;4956599;29;20035;-70
2023/10/21 08:56:20;;;;;;;59.92;55.60;;;15.30;99.90;;;;;;4955070;28;20058;-70
2023/10/21 08:58:46;;;;;;;57.30;53.08;;;15.30;99.90;;;;;;4956627;29;20028;-70
2023/10/21 09:01:15;;;;;;;72.82;68.25;;;15.30;99.90;;;;;;4955326;28;20043;-70
2023/10/21 09:03:44;;;;;;;65.25;60.97;;;15.30;99.90;;;;;;4956517;29;20428;-69
2023/10/21 09:06:11;;;;;;;69.72;64.75;;;15.30;99.90;;;;;;4954622;28;20060;-70
2023/10/21 09:08:40;;;;;;;73.68;68.78;;;15.40;99.90;;;;;;4961153;28;20053;-70
2023/10/21 09:11:07;;;;;;;67.40;62.95;;;15.40;99.90;;;;;;4967639;28;20027;-70
2023/10/21 09:13:35;;;;;;;69.65;64.50;;;15.50;99.90;;;;;;4956363;28;20043;-70
2023/10/21 09:16:04;;;;;;;76.35;71.20;;;15.50;99.90;;;;;;4955536;28;20047;-70
2023/10/21 09:18:37;;;;;;;57.08;52.75;;;15.60;99.90;;;;;;4956141;28;20062;-70
2023/10/21 09:21:05;;;;;;;69.72;65.03;;;15.60;99.90;;;;;;4955293;28;20039;-70
2023/10/21 09:23:31;;;;;;;63.63;59.38;;;15.60;99.90;;;;;;4956691;28;20058;-70
2023/10/21 09:25:57;;;;;;;52.55;48.67;;;15.70;99.90;;;;;;4955854;28;20027;-70
2023/10/21 09:28:24;;;;;;;63.03;58.38;;;15.80;99.90;;;;;;4955880;28;20042;-70
2023/10/21 09:31:01;;;;;;;61.63;57.22;;;16.00;99.90;;;;;;4955024;28;20042;-70
2023/10/21 09:33:27;;;;;;;70.72;65.80;;;16.10;99.90;;;;;;4954786;29;20038;-70
2023/10/21 09:36:01;;;;;;;65.13;61.03;;;16.10;99.90;;;;;;4960789;28;20038;-70
2023/10/21 09:38:27;;;;;;;80.82;75.65;;;16.10;99.90;;;;;;4974630;28;20484;-70
2023/10/21 09:40:53;;;;;;;62.38;58.10;;;16.10;99.90;;;;;;4969205;28;20027;-71
2023/10/21 09:43:20;;;;;;;77.55;72.47;;;16.00;99.90;;;;;;4954537;29;20058;-70
2023/10/21 09:45:46;;;;;;;100.35;93.75;;;15.90;99.90;;;;;;4953303;28;20500;-74
2023/10/21 09:48:12;;;;;;;94.72;88.30;;;15.90;99.90;;;;;;4954977;28;20039;-74
2023/10/21 09:50:42;;;;;;;101.82;95.57;;;15.80;99.90;;;;;;4954872;28;20027;-75
2023/10/21 09:53:12;;;;;;;98.18;91.72;;;15.80;99.90;;;;;;4938639;29;20031;-74
2023/10/21 09:55:41;;;;;;;84.40;79.10;;;15.80;99.90;;;;;;4922444;29;20525;-75
2023/10/21 09:58:08;;;;;;;92.00;85.68;;;15.80;99.90;;;;;;4954259;29;20027;-74
2023/10/21 10:00:35;;;;;;;67.65;62.88;;;15.80;99.90;;;;;;4954580;28;20027;-74
2023/10/21 10:03:01;;;;;;;77.30;71.88;;;15.90;99.90;;;;;;4955273;29;20039;-74
2023/10/21 10:05:28;;;;;;;80.30;74.20;;;15.90;99.90;;;;;;4937603;28;20384;-74
2023/10/21 10:07:55;;;;;;;102.80;96.15;;;16.00;99.90;;;;;;4937415;29;20043;-75
2023/10/21 10:10:22;;;;;;;96.30;90.03;;;16.10;99.90;;;;;;4956328;28;20047;-74
2023/10/21 10:13:01;;;;;;;89.60;83.25;;;16.20;99.90;;;;;;4972896;28;20035;-74
2023/10/21 10:15:27;;;;;;;86.15;80.18;;;16.30;99.90;;;;;;4970060;28;20034;-74
2023/10/21 10:17:53;;;;;;;79.28;73.35;;;16.40;99.90;;;;;;4954969;29;20039;-74
2023/10/21 10:20:27;;;;;;;93.03;86.68;;;16.50;99.90;;;;;;4954869;28;20050;-74
2023/10/21 10:23:04;;;;;;;87.85;82.03;;;16.70;99.90;;;;;;4955000;29;20031;-75
2023/10/21 10:25:31;;;;;;;92.28;85.88;;;16.80;99.90;;;;;;4954703;28;20148;-74
2023/10/21 10:27:59;;;;;;;75.32;69.82;;;16.90;99.90;;;;;;4953886;28;20046;-74
2023/10/21 10:30:30;;;;;;;76.85;70.45;;;16.90;99.90;;;;;;4954553;28;20035;-75
2023/10/21 10:32:57;;;;;;;94.63;88.10;;;16.90;99.90;;;;;;4953898;28;20047;-75
2023/10/21 10:35:31;;;;;;;87.93;81.88;;;16.90;99.90;;;;;;4955736;28;20653;-75
2023/10/21 10:37:59;;;;;;;91.90;85.57;;;16.90;99.90;;;;;;4972843;28;20038;-75
2023/10/21 10:40:35;;;;;;;88.88;82.93;;;17.00;99.90;;;;;;4969865;28;20045;-74
2023/10/21 10:43:03;;;;;;;127.30;118.75;;;17.00;99.90;;;;;;4954661;29;20046;-74
2023/10/21 10:45:33;;;;;;;102.20;95.38;;;17.10;99.90;;;;;;4952989;28;20042;-75
2023/10/21 10:48:00;;;;;;;101.20;94.90;;;17.10;99.90;;;;;;4954202;29;20035;-75
2023/10/21 10:50:27;;;;;;;123.57;115.70;;;17.10;99.90;;;;;;4952966;28;20038;-74
2023/10/21 10:52:56;;;;;;;107.47;100.85;;;17.20;99.90;;;;;;4953306;29;20043;-70
2023/10/21 10:55:22;;;;;;;181.00;169.75;;;17.40;99.90;;;;;;4954223;28;20058;-70
2023/10/21 10:57:51;;;;;;;151.75;142.02;;;17.40;99.90;;;;;;4954822;28;20396;-70
2023/10/21 11:00:20;;;;;;;122.32;114.10;;;17.30;99.90;;;;;;4953742;28;20483;-71
2023/10/21 11:02:48;;;;;;;143.43;134.88;;;17.10;99.90;;;;;;4954142;29;20043;-70
2023/10/21 11:05:20;;;;;;;187.65;177.10;;;17.00;99.90;;;;;;4953927;28;20044;-70
2023/10/21 11:07:50;;;;;;;170.70;160.20;;;16.90;99.90;;;;;;4954431;29;20030;-70
2023/10/21 11:10:19;;;;;;;153.52;143.93;;;16.80;99.90;;;;;;4971710;28;20482;-70
2023/10/21 11:12:47;;;;;;;141.75;133.23;;;16.90;99.90;;;;;;4954263;29;20038;-70
2023/10/21 11:15:13;;;;;;;138.23;130.02;;;17.10;99.90;;;;;;4953584;28;20381;-70
2023/10/21 11:17:40;;;;;;;170.70;160.77;;;17.10;99.90;;;;;;4953862;29;20043;-70
2023/10/21 11:20:09;;;;;;;138.98;130.52;;;17.20;99.90;;;;;;4954027;28;20448;-70
2023/10/21 11:22:35;;;;;;;128.13;120.55;;;17.30;99.90;;;;;;4953879;28;20054;-70
2023/10/21 11:25:03;;;;;;;124.93;117.28;;;17.40;99.90;;;;;;4954373;29;20028;-70
2023/10/21 11:27:29;;;;;;;123.68;116.35;;;17.40;99.90;;;;;;4953878;28;20389;-70
2023/10/21 11:29:55;;;;;;;134.35;126.70;;;17.40;99.90;;;;;;4954255;29;20035;-70
2023/10/21 11:32:26;;;;;;;96.00;89.82;;;17.50;99.90;;;;;;4953094;28;20035;-70
2023/10/21 11:34:52;;;;;;;152.68;143.20;;;17.50;99.90;;;;;;4954083;28;20043;-70
2023/10/21 11:37:18;;;;;;;158.35;149.20;;;17.50;99.90;;;;;;4971269;28;20394;-70
2023/10/21 11:39:47;;;;;;;253.20;239.40;;;17.40;99.90;;;;;;4971441;28;20054;-70
2023/10/21 11:42:19;;;;;;;271.10;256.48;;;17.30;99.90;;;;;;4955535;28;20039;-70
2023/10/21 11:44:58;;;;;;;330.30;311.52;;;17.10;99.90;;;;;;4954053;28;20058;-70
2023/10/21 11:47:28;;;;;;;254.52;241.13;;;16.90;99.90;;;;;;4953774;28;20047;-70
2023/10/21 11:49:54;;;;;;;220.98;209.07;;;16.90;99.90;;;;;;4954035;28;20043;-70
2023/10/21 11:52:22;;;;;;;141.27;133.32;;;16.80;99.90;;;;;;4955598;28;20412;-70
2023/10/21 12:38:22;;;;;;;108.75;102.43;;;17.50;99.90;;;;;;4973756;28;20030;-74
2023/10/21 12:43:39;;;;;;;130.32;122.10;;;17.30;99.90;;;;;;4962910;28;20027;-74
2023/10/21 12:45:46;;;;;;;119.82;112.45;;;17.20;99.90;;;;;;4952668;28;20038;-75
2023/10/21 12:48:14;;;;;;;119.70;112.70;;;17.20;99.90;;;;;;4939892;29;20418;-75
2023/10/21 12:50:40;;;;;;;112.03;105.47;;;17.30;99.90;;;;;;4955059;28;20043;-75
2023/10/21 12:53:08;;;;;;;107.40;100.95;;;17.40;99.90;;;;;;4957272;28;20047;-75
2023/10/21 12:55:35;;;;;;;109.28;102.93;;;17.40;99.90;;;;;;4955615;28;20039;-74
2023/10/21 12:58:02;;;;;;;98.55;92.43;;;17.40;99.90;;;;;;4956336;29;20042;-75
2023/10/21 13:00:29;;;;;;;96.72;90.45;;;17.40;99.90;;;;;;4954399;28;20032;-74
2023/10/21 13:02:55;;;;;;;93.28;87.40;;;17.50;99.90;;;;;;4954773;28;20023;-75
2023/10/21 13:05:21;;;;;;;100.88;94.63;;;17.50;99.90;;;;;;4956097;28;20035;-74
2023/10/21 13:07:47;;;;;;;92.63;86.95;;;17.60;99.90;;;;;;4955298;29;20028;-74